Bluefields Airport


Codes: MNBL/BEF
Name: Bluefields Airport
City: Bluefileds
Country: Nicaragua
Elevation: 20 ft.
Wikipedia:

Photos at Bluefields Airport


   Photos courtesy of SpottingLog. You can add your own sightings and photos by signing up for a free trial today.



No photos found.

Weather at Bluefields Airport


Time (UTC)DescriptionTempratureWindCloud coverageVisibilityPressureHumidity
19-Apr-2024 03:00Clear Sky26°C4 mph, E7%10000m1013hPa81%
19-Apr-2024 06:00Clear Sky26°C7 mph, E7%10000m1013hPa82%
19-Apr-2024 09:00Light Rain25°C2 mph, NE28%6473m1012hPa87%
19-Apr-2024 12:00Light Rain25°C2 mph, NE56%10000m1012hPa88%
19-Apr-2024 15:00Scattered Clouds30°C4 mph, E45%10000m1014hPa61%
19-Apr-2024 18:00Broken Clouds30°C9 mph, E70%10000m1012hPa60%
19-Apr-2024 21:00Broken Clouds30°C9 mph, E74%10000m1010hPa63%
20-Apr-2024 00:00Broken Clouds27°C7 mph, E76%10000m1011hPa77%
20-Apr-2024 03:00Overcast Clouds27°C7 mph, E100%10000m1013hPa78%
20-Apr-2024 06:00Overcast Clouds26°C4 mph, SE100%10000m1012hPa84%
20-Apr-2024 09:00Light Rain25°C2 mph, NE100%10000m1012hPa90%
20-Apr-2024 12:00Light Rain25°C2 mph, NE100%10000m1013hPa88%
20-Apr-2024 15:00Overcast Clouds30°C4 mph, NE100%10000m1014hPa60%
20-Apr-2024 18:00Overcast Clouds30°C9 mph, E100%10000m1013hPa60%
20-Apr-2024 21:00Overcast Clouds29°C7 mph, E100%10000m1011hPa67%
21-Apr-2024 00:00Overcast Clouds26°C4 mph, E100%10000m1012hPa78%
21-Apr-2024 03:00Overcast Clouds26°C4 mph, E99%10000m1013hPa76%
21-Apr-2024 06:00Overcast Clouds25°C4 mph, E99%10000m1012hPa78%
21-Apr-2024 09:00Overcast Clouds24°C0 mph, S93%10000m1011hPa85%
21-Apr-2024 12:00Overcast Clouds24°C4 mph, W95%10000m1012hPa86%
21-Apr-2024 15:00Few Clouds30°C2 mph, NE14%10000m1013hPa61%
21-Apr-2024 18:00Scattered Clouds30°C7 mph, E37%10000m1012hPa60%
21-Apr-2024 21:00Few Clouds30°C7 mph, E18%10000m1009hPa62%
22-Apr-2024 00:00Few Clouds27°C7 mph, E15%10000m1010hPa78%
22-Apr-2024 03:00Clear Sky26°C7 mph, E2%10000m1011hPa81%
22-Apr-2024 06:00Clear Sky26°C4 mph, SE4%10000m1011hPa83%
22-Apr-2024 09:00Few Clouds25°C2 mph, SE23%10000m1010hPa85%
22-Apr-2024 12:00Light Rain25°C0 mph, W41%10000m1012hPa88%
22-Apr-2024 15:00Light Rain28°C4 mph, E27%10000m1013hPa75%
22-Apr-2024 18:00Light Rain31°C9 mph, E19%10000m1011hPa57%
22-Apr-2024 21:00Clear Sky30°C7 mph, E3%10000m1009hPa60%
23-Apr-2024 00:00Clear Sky27°C7 mph, E4%10000m1010hPa77%
23-Apr-2024 03:00Broken Clouds27°C9 mph, E56%10000m1012hPa79%
23-Apr-2024 06:00Broken Clouds26°C7 mph, SE79%10000m1011hPa81%
23-Apr-2024 09:00Light Rain25°C4 mph, E100%10000m1011hPa88%
23-Apr-2024 12:00Light Rain25°C4 mph, E68%10000m1012hPa90%
23-Apr-2024 15:00Light Rain28°C7 mph, E12%10000m1014hPa81%
23-Apr-2024 18:00Light Rain30°C7 mph, E29%10000m1012hPa64%
23-Apr-2024 21:00Light Rain30°C7 mph, E18%10000m1010hPa66%
24-Apr-2024 00:00Light Rain26°C7 mph, NE12%10000m1011hPa85%